Time,TemperatureF,DewpointF,PressureIn,WindDirection,WindDirectionDegrees,WindSpeedMPH,WindSpeedGustMPH,Humidity,HourlyPrecipIn,Conditions,Clouds,dailyrainin,SoftwareType,DateUTC
2013-04-21 00:02:00,42.3,38.4,29.25,WSW,248,2.3,0.0,86,0.00,RA,,0.00,WeatherDisplay:10.37,2013-04-21 07:02:00,
2013-04-21 00:07:00,42.1,38.2,29.25,West,270,1.6,1.6,86,0.00,RA,,0.00,WeatherDisplay:10.37,2013-04-21 07:07:00,
2013-04-21 00:12:00,42.1,38.5,29.25,NW,315,2.3,2.3,87,0.00,CLR,,0.00,WeatherDisplay:10.37,2013-04-21 07:12:00,
2013-04-21 00:17:00,42.1,38.2,29.25,SE,135,2.3,2.3,86,0.00,CLR,,0.00,WeatherDisplay:10.37,2013-04-21 07:17:00,
2013-04-21 00:22:00,42.1,38.2,29.25,SSE,158,1.2,1.2,86,0.00,CLR,,0.00,WeatherDisplay:10.37,2013-04-21 07:22:00,
2013-04-21 00:27:00,41.9,38.3,29.25,SW,225,1.2,1.2,87,0.00,CLR,,0.00,WeatherDisplay:10.37,2013-04-21 07:27:00,
2013-04-21 00:32:00,41.9,38.3,29.25,SSE,158,1.8,1.8,87,0.00,CLR,,0.00,WeatherDisplay:10.37,2013-04-21 07:32:00,
2013-04-21 00:37:00,42.1,38.5,29.25,SW,225,1.2,1.2,87,0.00,CLR,,0.00,WeatherDisplay:10.37,2013-04-21 07:37:00,
2013-04-21 00:42:00,42.1,38.5,29.25,WSW,248,0.2,0.2,87,0.00,CLR,,0.00,WeatherDisplay:10.37,2013-04-21 07:42:00,
2013-04-21 00:47:00,42.1,38.5,29.25,South,180,1.2,0.0,87,0.00,CLR,,0.00,WeatherDisplay:10.37,2013-04-21 07:47:00,
2013-04-21 00:52:00,42.3,39.0,29.25,SW,225,0.9,0.9,88,0.00,CLR,,0.00,WeatherDisplay:10.37,2013-04-21 07:52:00,
2013-04-21 00:57:00,42.4,39.1,29.25,NNW,338,0.5,0.5,88,0.00,CLR,,0.00,WeatherDisplay:10.37,2013-04-21 07:57:00,
2013-04-21 01:02:00,42.4,39.1,29.25,WSW,248,1.2,1.2,88,0.00,CLR,,0.00,WeatherDisplay:10.37,2013-04-21 08:02:00,
2013-04-21 01:07:00,42.4,38.8,29.25,SW,225,1.2,0.0,87,0.00,CLR,,0.00,WeatherDisplay:10.37,2013-04-21 08:07:00,
2013-04-21 01:12:00,42.4,38.8,29.25,SW,225,0.0,0.0,87,0.00,CLR,,0.00,WeatherDisplay:10.37,2013-04-21 08:12:00,
2013-04-21 01:17:00,42.4,38.8,29.25,SSE,158,0.5,0.5,87,0.00,CLR,,0.00,WeatherDisplay:10.37,2013-04-21 08:17:00,
2013-04-21 01:22:00,42.4,38.8,29.26,South,180,1.2,1.2,87,0.00,CLR,,0.00,WeatherDisplay:10.37,2013-04-21 08:22:00,
2013-04-21 01:27:00,42.4,38.8,29.25,SE,135,1.2,0.0,87,0.00,CLR,,0.00,WeatherDisplay:10.37,2013-04-21 08:27:00,
2013-04-21 01:32:00,42.4,38.8,29.25,SSE,158,2.3,2.3,87,0.00,CLR,,0.00,WeatherDisplay:10.37,2013-04-21 08:32:00,
2013-04-21 01:37:00,42.3,38.7,29.25,WSW,248,0.0,0.0,87,0.00,CLR,,0.00,WeatherDisplay:10.37,2013-04-21 08:37:00,
2013-04-21 01:42:00,42.1,38.5,29.25,NE,45,0.0,0.0,87,0.00,CLR,,0.00,WeatherDisplay:10.37,2013-04-21 08:42:00,
2013-04-21 01:47:00,42.1,38.5,29.25,West,270,0.0,0.0,87,0.00,CLR,,0.00,WeatherDisplay:10.37,2013-04-21 08:47:00,
2013-04-21 01:52:00,41.9,38.3,29.25,WNW,292,1.2,0.0,87,0.00,CLR,,0.00,WeatherDisplay:10.37,2013-04-21 08:52:00,
2013-04-21 01:57:00,41.7,38.1,29.24,NNE,22,1.2,0.0,87,0.00,CLR,,0.00,WeatherDisplay:10.37,2013-04-21 08:57:00,
2013-04-21 02:02:00,41.7,38.4,29.24,WNW,292,1.2,1.2,88,0.00,CLR,,0.00,WeatherDisplay:10.37,2013-04-21 09:02:00,
2013-04-21 02:07:00,41.9,38.3,29.24,WNW,292,0.0,0.0,87,0.00,CLR,,0.00,WeatherDisplay:10.37,2013-04-21 09:07:00,
2013-04-21 02:12:00,41.9,38.6,29.24,WNW,292,0.0,0.0,88,0.00,CLR,,0.00,WeatherDisplay:10.37,2013-04-21 09:12:00,
2013-04-21 02:17:00,41.7,38.4,29.24,WNW,292,0.0,0.0,88,0.00,CLR,,0.00,WeatherDisplay:10.37,2013-04-21 09:17:00,
2013-04-21 02:22:00,41.7,38.4,29.24,SSW,202,0.5,0.5,88,0.00,CLR,,0.00,WeatherDisplay:10.37,2013-04-21 09:22:00,
2013-04-21 02:27:00,41.7,38.4,29.24,West,270,0.9,0.9,88,0.00,CLR,,0.00,WeatherDisplay:10.37,2013-04-21 09:27:00,
2013-04-21 02:32:00,41.7,38.7,29.24,East,90,1.2,1.2,89,0.00,CLR,,0.00,WeatherDisplay:10.37,2013-04-21 09:32:00,
2013-04-21 02:37:00,41.9,38.9,29.24,WSW,248,1.4,1.4,89,0.00,CLR,,0.00,WeatherDisplay:10.37,2013-04-21 09:37:00,
2013-04-21 02:42:00,42.1,39.1,29.24,NW,315,0.0,0.0,89,0.00,CLR,,0.00,WeatherDisplay:10.37,2013-04-21 09:42:00,
2013-04-21 02:47:00,42.1,39.1,29.24,West,270,1.2,1.2,89,0.00,CLR,,0.00,WeatherDisplay:10.37,2013-04-21 09:47:00,
2013-04-21 02:52:00,42.1,39.1,29.24,West,270,2.3,2.3,89,0.00,CLR,,0.00,WeatherDisplay:10.37,2013-04-21 09:52:00,
2013-04-21 02:57:00,42.1,39.1,29.23,West,270,0.0,0.0,89,0.00,CLR,,0.00,WeatherDisplay:10.37,2013-04-21 09:57:00,
2013-04-21 03:02:00,42.1,39.1,29.24,WSW,248,1.2,0.0,89,0.00,CLR,,0.00,WeatherDisplay:10.37,2013-04-21 10:02:00,
2013-04-21 03:07:00,42.3,39.2,29.24,NNW,338,1.2,0.0,89,0.00,CLR,,0.00,WeatherDisplay:10.37,2013-04-21 10:07:00,
2013-04-21 03:12:00,42.3,39.2,29.24,WSW,248,0.5,0.5,89,0.00,CLR,,0.00,WeatherDisplay:10.37,2013-04-21 10:12:00,
2013-04-21 03:17:00,42.3,39.2,29.23,WSW,248,0.0,0.0,89,0.00,CLR,,0.00,WeatherDisplay:10.37,2013-04-21 10:17:00,
2013-04-21 03:22:00,42.3,39.2,29.23,NNW,338,1.2,1.2,89,0.00,CLR,,0.00,WeatherDisplay:10.37,2013-04-21 10:22:00,
2013-04-21 03:28:00,42.3,39.2,29.23,WNW,292,0.2,0.2,89,0.00,CLR,,0.00,WeatherDisplay:10.37,2013-04-21 10:28:00,
2013-04-21 03:33:00,42.3,39.2,29.23,NW,315,0.0,0.0,89,0.00,CLR,,0.00,WeatherDisplay:10.37,2013-04-21 10:33:00,
2013-04-21 03:38:00,42.1,39.1,29.23,West,270,0.0,0.0,89,0.00,CLR,,0.00,WeatherDisplay:10.37,2013-04-21 10:38:00,
2013-04-21 03:43:00,42.1,39.1,29.22,WSW,248,1.2,1.2,89,0.00,CLR,,0.00,WeatherDisplay:10.37,2013-04-21 10:43:00,
2013-04-21 03:48:00,41.7,38.7,29.22,WSW,248,0.0,0.0,89,0.00,CLR,,0.00,WeatherDisplay:10.37,2013-04-21 10:48:00,
2013-04-21 03:53:00,41.5,38.5,29.22,WNW,292,1.2,0.0,89,0.00,CLR,,0.00,WeatherDisplay:10.37,2013-04-21 10:53:00,
2013-04-21 03:58:00,41.4,38.4,29.22,WNW,292,0.0,0.0,89,0.00,CLR,,0.00,WeatherDisplay:10.37,2013-04-21 10:58:00,
2013-04-21 04:03:00,41.4,38.4,29.22,WNW,292,0.0,0.0,89,0.00,CLR,,0.00,WeatherDisplay:10.37,2013-04-21 11:03:00,
2013-04-21 04:08:00,41.4,38.4,29.22,SW,225,0.0,0.0,89,0.00,CLR,,0.00,WeatherDisplay:10.37,2013-04-21 11:08:00,
2013-04-21 04:13:00,41.4,38.4,29.22,SW,225,0.0,0.0,89,0.00,CLR,,0.00,WeatherDisplay:10.37,2013-04-21 11:13:00,
2013-04-21 04:18:00,41.4,38.6,29.22,SW,225,0.0,0.0,90,0.00,CLR,,0.00,WeatherDisplay:10.37,2013-04-21 11:18:00,
2013-04-21 04:23:00,41.4,38.4,29.22,SW,225,0.0,0.0,89,0.00,CLR,,0.00,WeatherDisplay:10.37,2013-04-21 11:23:00,
2013-04-21 04:28:00,41.4,38.4,29.23,SW,225,0.0,0.0,89,0.00,CLR,,0.00,WeatherDisplay:10.37,2013-04-21 11:28:00,
2013-04-21 04:33:00,41.2,38.2,29.23,SW,225,0.0,0.0,89,0.00,CLR,,0.00,WeatherDisplay:10.37,2013-04-21 11:33:00,
2013-04-21 04:38:00,41.0,38.0,29.22,SW,225,0.0,0.0,89,0.00,CLR,,0.00,WeatherDisplay:10.37,2013-04-21 11:38:00,
2013-04-21 04:43:00,41.0,38.0,29.23,SW,225,0.0,0.0,89,0.00,CLR,,0.00,WeatherDisplay:10.37,2013-04-21 11:43:00,
2013-04-21 04:48:00,41.0,38.0,29.22,SW,225,0.0,0.0,89,0.00,CLR,,0.00,WeatherDisplay:10.37,2013-04-21 11:48:00,
2013-04-21 04:53:00,41.0,38.3,29.23,SW,225,0.0,0.0,90,0.00,CLR,,0.00,WeatherDisplay:10.37,2013-04-21 11:53:00,
2013-04-21 04:58:00,41.0,38.3,29.23,SW,225,0.0,0.0,90,0.00,CLR,,0.00,WeatherDisplay:10.37,2013-04-21 11:58:00,
2013-04-21 05:03:00,41.2,38.5,29.23,SW,225,1.2,1.2,90,0.00,CLR,,0.00,WeatherDisplay:10.37,2013-04-21 12:03:00,
2013-04-21 05:08:00,41.4,38.6,29.23,ENE,68,0.0,0.0,90,0.00,CLR,,0.00,WeatherDisplay:10.37,2013-04-21 12:08:00,
2013-04-21 05:13:00,41.4,38.6,29.23,North,0,0.0,0.0,90,0.00,CLR,,0.00,WeatherDisplay:10.37,2013-04-21 12:13:00,
2013-04-21 05:18:00,41.4,38.6,29.23,North,0,0.0,0.0,90,0.00,CLR,,0.00,WeatherDisplay:10.37,2013-04-21 12:18:00,
2013-04-21 05:23:00,41.5,38.8,29.23,North,0,0.0,0.0,90,0.00,CLR,,0.00,WeatherDisplay:10.37,2013-04-21 12:23:00,
2013-04-21 05:28:00,41.5,38.8,29.23,North,0,0.0,0.0,90,0.00,CLR,,0.00,WeatherDisplay:10.37,2013-04-21 12:28:00,
2013-04-21 05:33:00,41.7,39.0,29.23,North,0,0.0,0.0,90,0.00,CLR,,0.00,WeatherDisplay:10.37,2013-04-21 12:33:00,
2013-04-21 05:38:00,41.7,39.0,29.23,North,0,0.0,0.0,90,0.00,CLR,,0.00,WeatherDisplay:10.37,2013-04-21 12:38:00,
2013-04-21 05:43:00,41.7,39.0,29.23,North,0,0.0,0.0,90,0.00,CLR,,0.00,WeatherDisplay:10.37,2013-04-21 12:43:00,
2013-04-21 05:48:00,41.9,39.2,29.23,North,0,0.0,0.0,90,0.00,CLR,,0.00,WeatherDisplay:10.37,2013-04-21 12:48:00,
2013-04-21 05:53:00,41.9,39.2,29.23,North,0,0.0,0.0,90,0.00,CLR,,0.00,WeatherDisplay:10.37,2013-04-21 12:53:00,
2013-04-21 05:58:00,42.1,39.4,29.23,North,0,0.0,0.0,90,0.00,CLR,,0.00,WeatherDisplay:10.37,2013-04-21 12:58:00,
2013-04-21 06:03:00,42.1,39.4,29.23,North,0,0.0,0.0,90,0.00,CLR,,0.00,WeatherDisplay:10.37,2013-04-21 13:03:00,
2013-04-21 06:08:00,42.1,39.4,29.23,North,0,0.0,0.0,90,0.00,CLR,,0.00,WeatherDisplay:10.37,2013-04-21 13:08:00,
2013-04-21 06:13:00,42.1,39.4,29.23,North,0,0.0,0.0,90,0.00,CLR,,0.00,WeatherDisplay:10.37,2013-04-21 13:13:00,
2013-04-21 06:18:00,42.1,39.4,29.23,North,0,0.0,0.0,90,0.00,CLR,,0.00,WeatherDisplay:10.37,2013-04-21 13:18:00,
2013-04-21 06:23:00,42.1,39.4,29.23,North,0,0.0,0.0,90,0.00,CLR,,0.00,WeatherDisplay:10.37,2013-04-21 13:23:00,
2013-04-21 06:28:00,42.1,39.4,29.22,North,0,0.0,0.0,90,0.00,CLR,,0.00,WeatherDisplay:10.37,2013-04-21 13:28:00,
2013-04-21 06:33:00,42.1,39.4,29.23,North,0,0.0,0.0,90,0.00,CLR,,0.00,WeatherDisplay:10.37,2013-04-21 13:33:00,
2013-04-21 06:38:00,42.1,39.4,29.22,North,0,0.0,0.0,90,0.00,CLR,,0.00,WeatherDisplay:10.37,2013-04-21 13:38:00,
2013-04-21 06:43:00,42.3,39.5,29.23,North,0,0.0,0.0,90,0.00,CLR,,0.00,WeatherDisplay:10.37,2013-04-21 13:43:00,
2013-04-21 06:48:00,42.4,39.7,29.23,North,0,0.0,0.0,90,0.00,CLR,,0.00,WeatherDisplay:10.37,2013-04-21 13:48:00,
2013-04-21 06:53:00,42.4,39.7,29.23,North,0,0.0,0.0,90,0.00,CLR,,0.00,WeatherDisplay:10.37,2013-04-21 13:53:00,
2013-04-21 06:58:00,42.6,39.9,29.23,North,0,0.0,0.0,90,0.00,CLR,,0.00,WeatherDisplay:10.37,2013-04-21 13:58:00,
2013-04-21 07:03:00,42.8,39.8,29.23,North,0,0.0,0.0,89,0.00,CLR,,0.00,WeatherDisplay:10.37,2013-04-21 14:03:00,
2013-04-21 07:08:00,43.0,40.0,29.23,North,0,0.0,0.0,89,0.00,CLR,,0.00,WeatherDisplay:10.37,2013-04-21 14:08:00,
2013-04-21 07:13:00,43.0,40.0,29.23,North,0,0.0,0.0,89,0.00,CLR,,0.00,WeatherDisplay:10.37,2013-04-21 14:13:00,
2013-04-21 07:18:00,43.2,40.1,29.23,North,0,0.0,0.0,89,0.00,CLR,,0.00,WeatherDisplay:10.37,2013-04-21 14:18:00,
2013-04-21 07:23:00,43.5,40.5,29.22,North,0,0.0,0.0,89,0.00,CLR,,0.00,WeatherDisplay:10.37,2013-04-21 14:23:00,
2013-04-21 07:28:00,43.7,40.7,29.22,North,0,0.0,0.0,89,0.00,CLR,,0.00,WeatherDisplay:10.37,2013-04-21 14:28:00,
2013-04-21 07:33:00,43.9,40.8,29.23,North,0,0.0,0.0,89,0.00,CLR,,0.00,WeatherDisplay:10.37,2013-04-21 14:33:00,
2013-04-21 07:38:00,44.1,41.0,29.22,NE,45,0.7,0.7,89,0.00,CLR,,0.00,WeatherDisplay:10.37,2013-04-21 14:38:00,
2013-04-21 07:43:00,44.2,41.2,29.23,NE,45,0.0,0.0,89,0.00,CLR,,0.00,WeatherDisplay:10.37,2013-04-21 14:43:00,
2013-04-21 07:48:00,44.2,40.9,29.23,SSW,202,0.0,0.0,88,0.00,CLR,,0.00,WeatherDisplay:10.37,2013-04-21 14:48:00,
2013-04-21 07:53:00,44.2,40.9,29.23,SSE,158,1.2,1.2,88,0.00,CLR,,0.00,WeatherDisplay:10.37,2013-04-21 14:53:00,
2013-04-21 07:58:00,44.2,40.9,29.23,SSE,158,1.2,0.0,88,0.00,CLR,,0.00,WeatherDisplay:10.37,2013-04-21 14:58:00,
2013-04-21 08:03:00,44.2,40.9,29.23,South,180,0.0,0.0,88,0.00,CLR,,0.00,WeatherDisplay:10.37,2013-04-21 15:03:00,
2013-04-21 08:08:00,44.2,41.2,29.23,SSW,202,1.2,1.2,89,0.00,CLR,,0.00,WeatherDisplay:10.37,2013-04-21 15:08:00,
2013-04-21 08:13:00,44.2,40.9,29.23,SSW,202,0.2,0.2,88,0.00,CLR,,0.00,WeatherDisplay:10.37,2013-04-21 15:13:00,
2013-04-21 08:18:00,44.2,40.9,29.23,SSW,202,0.9,0.9,88,0.00,CLR,,0.00,WeatherDisplay:10.37,2013-04-21 15:18:00,
2013-04-21 08:23:00,44.4,41.1,29.23,SSE,158,1.2,0.0,88,0.00,CLR,,0.00,WeatherDisplay:10.37,2013-04-21 15:23:00,
2013-04-21 08:28:00,44.6,41.6,29.23,South,180,0.0,0.0,89,0.00,CLR,,0.00,WeatherDisplay:10.37,2013-04-21 15:28:00,
2013-04-21 08:33:00,44.8,41.7,29.23,SW,225,1.2,1.2,89,0.00,CLR,,0.00,WeatherDisplay:10.37,2013-04-21 15:33:00,
2013-04-21 08:38:00,44.8,41.7,29.23,SSE,158,1.2,1.2,89,0.00,CLR,,0.00,WeatherDisplay:10.37,2013-04-21 15:38:00,
2013-04-21 08:43:00,45.0,41.6,29.23,West,270,1.2,1.2,88,0.00,CLR,,0.00,WeatherDisplay:10.37,2013-04-21 15:43:00,
2013-04-21 08:48:00,44.6,41.3,29.23,West,270,1.4,1.4,88,0.00,CLR,,0.00,WeatherDisplay:10.37,2013-04-21 15:48:00,
2013-04-21 08:53:00,44.6,41.3,29.23,SW,225,0.0,0.0,88,0.00,CLR,,0.00,WeatherDisplay:10.37,2013-04-21 15:53:00,
2013-04-21 08:58:00,45.0,41.6,29.23,SSE,158,1.2,0.0,88,0.00,CLR,,0.00,WeatherDisplay:10.37,2013-04-21 15:58:00,
2013-04-21 09:03:00,45.3,42.0,29.23,SSW,202,2.3,2.3,88,0.00,CLR,,0.00,WeatherDisplay:10.37,2013-04-21 16:03:00,
2013-04-21 09:08:00,45.5,42.2,29.23,SSE,158,2.2,2.2,88,0.00,CLR,,0.00,WeatherDisplay:10.37,2013-04-21 16:08:00,
2013-04-21 09:13:00,45.7,42.3,29.22,SE,135,1.2,1.2,88,0.00,CLR,,0.00,WeatherDisplay:10.37,2013-04-21 16:13:00,
2013-04-21 09:19:00,46.0,42.7,29.23,SE,135,1.6,1.6,88,0.00,CLR,,0.00,WeatherDisplay:10.37,2013-04-21 16:19:00,
2013-04-21 09:24:00,46.4,42.7,29.23,SE,135,2.3,2.3,87,0.00,CLR,,0.00,WeatherDisplay:10.37,2013-04-21 16:24:00,
2013-04-21 09:29:00,46.6,42.6,29.23,SE,135,2.3,2.3,86,0.00,CLR,,0.00,WeatherDisplay:10.37,2013-04-21 16:29:00,
2013-04-21 09:34:00,46.8,42.8,29.22,SE,135,1.8,1.8,86,0.00,CLR,,0.00,WeatherDisplay:10.37,2013-04-21 16:34:00,
2013-04-21 09:39:00,47.1,43.1,29.22,SSE,158,2.3,2.3,86,0.00,CLR,,0.00,WeatherDisplay:10.37,2013-04-21 16:39:00,
2013-04-21 09:44:00,47.1,42.8,29.22,SSE,158,2.3,2.3,85,0.00,CLR,,0.00,WeatherDisplay:10.37,2013-04-21 16:44:00,
2013-04-21 09:49:00,46.9,42.7,29.22,SSW,202,2.3,2.3,85,0.00,CLR,,0.00,WeatherDisplay:10.37,2013-04-21 16:49:00,
2013-04-21 09:54:00,46.9,42.7,29.22,SSE,158,2.3,2.3,85,0.00,CLR,,0.00,WeatherDisplay:10.37,2013-04-21 16:54:00,
2013-04-21 09:59:00,47.1,42.8,29.23,SSE,158,1.2,1.2,85,0.00,CLR,,0.00,WeatherDisplay:10.37,2013-04-21 16:59:00,
2013-04-21 10:04:00,47.3,43.0,29.22,SSW,202,0.0,0.0,85,0.00,CLR,,0.00,WeatherDisplay:10.37,2013-04-21 17:04:00,
2013-04-21 10:09:00,47.7,43.4,29.22,South,180,1.2,1.2,85,0.00,CLR,,0.00,WeatherDisplay:10.37,2013-04-21 17:09:00,
2013-04-21 10:14:00,47.8,43.2,29.23,South,180,1.2,1.2,84,0.00,CLR,,0.00,WeatherDisplay:10.37,2013-04-21 17:14:00,
2013-04-21 10:19:00,48.0,43.4,29.23,SSW,202,0.0,0.5,84,0.00,CLR,,0.00,WeatherDisplay:10.37,2013-04-21 17:19:00,
2013-04-21 10:24:00,48.2,43.3,29.22,SE,135,1.2,0.0,83,0.00,CLR,,0.00,WeatherDisplay:10.37,2013-04-21 17:24:00,
2013-04-21 10:29:00,48.2,43.3,29.22,SSW,202,0.0,0.0,83,0.00,CLR,,0.00,WeatherDisplay:10.37,2013-04-21 17:29:00,
2013-04-21 10:34:00,48.6,43.6,29.22,SE,135,1.2,1.2,83,0.00,CLR,,0.00,WeatherDisplay:10.37,2013-04-21 17:34:00,
2013-04-21 10:39:00,48.6,43.6,29.22,South,180,2.3,2.3,83,0.00,CLR,,0.00,WeatherDisplay:10.37,2013-04-21 17:39:00,
2013-04-21 10:44:00,48.7,43.8,29.22,SSE,158,2.3,2.3,83,0.00,CLR,,0.00,WeatherDisplay:10.37,2013-04-21 17:44:00,
2013-04-21 10:49:00,48.7,43.5,29.22,SSW,202,1.2,1.2,82,0.00,CLR,,0.00,WeatherDisplay:10.37,2013-04-21 17:49:00,
2013-04-21 10:54:00,48.9,43.7,29.23,SSE,158,2.3,2.3,82,0.00,CLR,,0.00,WeatherDisplay:10.37,2013-04-21 17:54:00,
2013-04-21 10:59:00,49.3,44.0,29.23,SE,135,1.2,1.2,82,0.00,CLR,,0.00,WeatherDisplay:10.37,2013-04-21 17:59:00,
2013-04-21 11:04:00,49.6,44.4,29.22,SE,135,2.3,2.3,82,0.00,CLR,,0.00,WeatherDisplay:10.37,2013-04-21 18:04:00,
2013-04-21 11:09:00,49.8,44.5,29.23,ESE,112,1.2,1.2,82,0.00,CLR,,0.00,WeatherDisplay:10.37,2013-04-21 18:09:00,
2013-04-21 11:14:00,50.0,44.4,29.23,SSE,158,2.3,2.3,81,0.00,CLR,,0.00,WeatherDisplay:10.37,2013-04-21 18:14:00,
2013-04-21 11:19:00,50.0,44.4,29.23,South,180,2.3,2.3,81,0.00,CLR,,0.00,WeatherDisplay:10.37,2013-04-21 18:19:00,
2013-04-21 11:24:00,50.0,44.4,29.23,SE,135,2.0,2.0,81,0.00,CLR,,0.00,WeatherDisplay:10.37,2013-04-21 18:24:00,
2013-04-21 11:29:00,50.0,44.1,29.22,South,180,2.3,2.3,80,0.00,CLR,,0.00,WeatherDisplay:10.37,2013-04-21 18:29:00,
2013-04-21 11:34:00,49.8,43.9,29.22,ESE,112,2.3,2.3,80,0.00,CLR,,0.00,WeatherDisplay:10.37,2013-04-21 18:34:00,
2013-04-21 11:39:00,50.0,44.1,29.22,South,180,2.3,2.3,80,0.00,CLR,,0.00,WeatherDisplay:10.37,2013-04-21 18:39:00,
2013-04-21 11:44:00,50.2,44.6,29.22,SE,135,1.2,1.2,81,0.00,CLR,,0.00,WeatherDisplay:10.37,2013-04-21 18:44:00,
2013-04-21 11:49:00,50.7,44.8,29.22,ESE,112,2.9,2.9,80,0.00,CLR,,0.00,WeatherDisplay:10.37,2013-04-21 18:49:00,
2013-04-21 11:54:00,51.1,45.1,29.22,SSE,158,2.3,2.3,80,0.00,CLR,,0.00,WeatherDisplay:10.37,2013-04-21 18:54:00,
2013-04-21 11:59:00,51.4,44.8,29.22,SSE,158,3.5,3.5,78,0.00,CLR,,0.00,WeatherDisplay:10.37,2013-04-21 18:59:00,
2013-04-21 12:04:00,50.9,44.3,29.22,SE,135,3.5,3.5,78,0.00,CLR,,0.00,WeatherDisplay:10.37,2013-04-21 19:04:00,
2013-04-21 12:09:00,50.7,44.1,29.22,SSE,158,2.2,2.2,78,0.00,CLR,,0.00,WeatherDisplay:10.37,2013-04-21 19:09:00,
2013-04-21 12:14:00,50.4,43.8,29.23,SE,135,1.2,1.2,78,0.00,CLR,,0.00,WeatherDisplay:10.37,2013-04-21 19:14:00,
2013-04-21 12:19:00,50.4,44.1,29.23,SSW,202,3.5,3.5,79,0.00,CLR,,0.00,WeatherDisplay:10.37,2013-04-21 19:19:00,
2013-04-21 12:24:00,50.4,44.1,29.23,SSE,158,2.3,2.3,79,0.00,CLR,,0.00,WeatherDisplay:10.37,2013-04-21 19:24:00,
2013-04-21 12:29:00,50.4,44.1,29.23,SE,135,3.5,3.5,79,0.00,CLR,,0.00,WeatherDisplay:10.37,2013-04-21 19:29:00,
2013-04-21 12:34:00,50.4,44.1,29.23,SSE,158,2.3,2.3,79,0.00,CLR,,0.00,WeatherDisplay:10.37,2013-04-21 19:34:00,
2013-04-21 12:39:00,50.0,44.1,29.23,SE,135,2.3,2.3,80,0.00,CLR,,0.00,WeatherDisplay:10.37,2013-04-21 19:39:00,
2013-04-21 12:44:00,49.8,43.9,29.23,SE,135,3.5,3.5,80,0.00,CLR,,0.00,WeatherDisplay:10.37,2013-04-21 19:44:00,
2013-04-21 12:49:00,49.3,43.4,29.23,SE,135,2.3,2.3,80,0.00,CLR,,0.00,WeatherDisplay:10.37,2013-04-21 19:49:00,
2013-04-21 12:54:00,49.3,43.7,29.22,SE,135,2.3,2.3,81,0.00,CLR,,0.00,WeatherDisplay:10.37,2013-04-21 19:54:00,
2013-04-21 12:59:00,49.6,44.0,29.23,SE,135,1.2,0.0,81,0.00,CLR,,0.00,WeatherDisplay:10.37,2013-04-21 19:59:00,
2013-04-21 13:04:00,49.6,44.0,29.23,SSE,158,1.2,1.2,81,0.00,CLR,,0.00,WeatherDisplay:10.37,2013-04-21 20:04:00,
2013-04-21 13:09:00,50.2,44.9,29.23,SSW,202,1.2,1.2,82,0.00,CLR,,0.00,WeatherDisplay:10.37,2013-04-21 20:09:00,
2013-04-21 13:14:00,50.5,45.2,29.23,SSW,202,1.2,0.0,82,0.01,RA,,0.01,WeatherDisplay:10.37,2013-04-21 20:14:00,
2013-04-21 13:19:00,50.9,45.6,29.22,SSE,158,2.3,2.3,82,0.01,RA,,0.01,WeatherDisplay:10.37,2013-04-21 20:19:00,
2013-04-21 13:24:00,50.9,45.6,29.22,South,180,2.3,2.3,82,0.01,,,0.01,WeatherDisplay:10.37,2013-04-21 20:24:00,
2013-04-21 13:29:00,50.4,45.1,29.22,SSW,202,1.2,1.2,82,0.01,CLR,,0.01,WeatherDisplay:10.37,2013-04-21 20:29:00,
2013-04-21 13:34:00,49.8,44.5,29.23,SE,135,2.3,2.3,82,0.01,CLR,,0.01,WeatherDisplay:10.37,2013-04-21 20:34:00,
2013-04-21 13:39:00,49.5,44.5,29.22,SSE,158,2.3,2.3,83,0.01,CLR,,0.01,WeatherDisplay:10.37,2013-04-21 20:39:00,
2013-04-21 13:44:00,50.0,45.4,29.22,SSE,158,2.3,2.3,84,0.01,CLR,,0.01,WeatherDisplay:10.37,2013-04-21 20:44:00,
2013-04-21 13:49:00,50.7,46.1,29.22,SSW,202,2.3,2.3,84,0.01,CLR,,0.01,WeatherDisplay:10.37,2013-04-21 20:49:00,
2013-04-21 13:54:00,50.9,45.9,29.23,SSE,158,2.3,2.3,83,0.01,CLR,,0.01,WeatherDisplay:10.37,2013-04-21 20:54:00,
2013-04-21 13:59:00,50.7,45.4,29.23,SSE,158,2.4,2.4,82,0.01,CLR,,0.01,WeatherDisplay:10.37,2013-04-21 20:59:00,
2013-04-21 14:04:00,50.4,45.4,29.23,SE,135,2.3,2.3,83,0.01,CLR,,0.01,WeatherDisplay:10.37,2013-04-21 21:04:00,
2013-04-21 14:09:00,50.4,45.7,29.23,ESE,112,2.3,2.3,84,0.01,CLR,,0.01,WeatherDisplay:10.37,2013-04-21 21:09:00,
2013-04-21 14:14:00,50.7,46.1,29.23,SSE,158,2.3,2.3,84,0.00,CLR,,0.01,WeatherDisplay:10.37,2013-04-21 21:14:00,
2013-04-21 14:19:00,51.3,46.3,29.23,East,90,2.0,2.0,83,0.00,CLR,,0.01,WeatherDisplay:10.37,2013-04-21 21:19:00,
2013-04-21 14:24:00,51.4,46.4,29.23,South,180,1.2,1.2,83,0.00,CLR,,0.01,WeatherDisplay:10.37,2013-04-21 21:24:00,
2013-04-21 14:29:00,51.6,46.6,29.23,SSW,202,1.2,1.2,83,0.00,CLR,,0.01,WeatherDisplay:10.37,2013-04-21 21:29:00,
2013-04-21 14:35:00,51.4,46.1,29.23,SSE,158,1.4,1.4,82,0.00,CLR,,0.01,WeatherDisplay:10.37,2013-04-21 21:35:00,
2013-04-21 14:40:00,51.4,46.4,29.22,South,180,1.2,1.4,83,0.00,CLR,,0.01,WeatherDisplay:10.37,2013-04-21 21:40:00,
2013-04-21 14:45:00,51.3,46.6,29.22,South,180,2.3,2.3,84,0.00,CLR,,0.01,WeatherDisplay:10.37,2013-04-21 21:45:00,
2013-04-21 14:50:00,50.7,46.1,29.23,SSE,158,3.5,3.5,84,0.00,CLR,,0.01,WeatherDisplay:10.37,2013-04-21 21:50:00,
2013-04-21 14:55:00,50.2,45.5,29.23,SSE,158,2.3,2.3,84,0.00,CLR,,0.01,WeatherDisplay:10.37,2013-04-21 21:55:00,
2013-04-21 15:00:00,50.2,45.8,29.23,SSE,158,1.2,1.4,85,0.00,CLR,,0.01,WeatherDisplay:10.37,2013-04-21 22:00:00,
2013-04-21 15:05:00,50.9,46.6,29.23,SE,135,1.2,1.2,85,0.00,CLR,,0.01,WeatherDisplay:10.37,2013-04-21 22:05:00,
2013-04-21 15:10:00,51.6,46.9,29.22,WNW,292,1.2,1.2,84,0.00,CLR,,0.01,WeatherDisplay:10.37,2013-04-21 22:10:00,
2013-04-21 15:15:00,51.8,46.8,29.22,West,270,2.3,2.3,83,0.00,CLR,,0.01,WeatherDisplay:10.37,2013-04-21 22:15:00,
2013-04-21 15:20:00,52.5,47.2,29.22,West,270,2.3,2.3,82,0.00,CLR,,0.01,WeatherDisplay:10.37,2013-04-21 22:20:00,
2013-04-21 15:25:00,52.3,47.0,29.22,WSW,248,2.3,2.3,82,0.00,CLR,,0.01,WeatherDisplay:10.37,2013-04-21 22:25:00,
2013-04-21 15:30:00,52.2,46.8,29.22,West,270,3.5,3.5,82,0.00,CLR,,0.01,WeatherDisplay:10.37,2013-04-21 22:30:00,
2013-04-21 15:35:00,51.4,46.1,29.22,WSW,248,2.4,2.4,82,0.00,CLR,,0.01,WeatherDisplay:10.37,2013-04-21 22:35:00,
2013-04-21 15:40:00,50.7,45.7,29.22,West,270,4.6,4.6,83,0.00,CLR,,0.02,WeatherDisplay:10.37,2013-04-21 22:40:00,
2013-04-21 15:45:00,50.4,45.7,29.22,SSE,158,2.3,2.3,84,0.01,RA,,0.02,WeatherDisplay:10.37,2013-04-21 22:45:00,
2013-04-21 15:50:00,50.4,45.7,29.22,WSW,248,1.2,1.2,84,0.01,RA,,0.02,WeatherDisplay:10.37,2013-04-21 22:50:00,
2013-04-21 15:55:00,50.4,45.7,29.22,SW,225,2.3,2.3,84,0.01,CLR,,0.02,WeatherDisplay:10.37,2013-04-21 22:55:00,
2013-04-21 16:00:00,50.4,46.0,29.22,West,270,1.4,1.4,85,0.01,CLR,,0.02,WeatherDisplay:10.37,2013-04-21 23:00:00,
2013-04-21 16:05:00,50.5,46.2,29.21,SW,225,2.3,2.3,85,0.01,CLR,,0.02,WeatherDisplay:10.37,2013-04-21 23:05:00,
2013-04-21 16:10:00,50.5,46.2,29.21,WSW,248,2.3,2.3,85,0.01,CLR,,0.02,WeatherDisplay:10.37,2013-04-21 23:10:00,
2013-04-21 16:15:00,50.5,46.5,29.21,WSW,248,2.3,2.3,86,0.01,CLR,,0.02,WeatherDisplay:10.37,2013-04-21 23:15:00,
2013-04-21 16:20:00,51.3,47.2,29.21,WSW,248,1.2,1.2,86,0.01,CLR,,0.02,WeatherDisplay:10.37,2013-04-21 23:20:00,
2013-04-21 16:25:00,51.8,47.4,29.21,West,270,2.3,0.0,85,0.01,CLR,,0.02,WeatherDisplay:10.37,2013-04-21 23:25:00,
2013-04-21 16:30:00,51.8,47.1,29.21,WSW,248,3.5,3.5,84,0.01,CLR,,0.02,WeatherDisplay:10.37,2013-04-21 23:30:00,
2013-04-21 16:35:00,51.4,46.8,29.21,SW,225,3.5,3.5,84,0.01,CLR,,0.02,WeatherDisplay:10.37,2013-04-21 23:35:00,
2013-04-21 16:40:00,50.9,46.2,29.21,West,270,2.3,2.3,84,0.01,CLR,,0.02,WeatherDisplay:10.37,2013-04-21 23:40:00,
2013-04-21 16:45:00,50.7,46.1,29.21,SW,225,3.5,3.5,84,0.00,CLR,,0.02,WeatherDisplay:10.37,2013-04-21 23:45:00,
2013-04-21 16:50:00,50.5,46.2,29.21,SW,225,2.3,2.3,85,0.00,CLR,,0.02,WeatherDisplay:10.37,2013-04-21 23:50:00,
2013-04-21 16:55:00,50.5,46.5,29.21,SW,225,1.4,1.4,86,0.00,CLR,,0.02,WeatherDisplay:10.37,2013-04-21 23:55:00,
2013-04-21 17:00:00,50.5,46.2,29.21,SW,225,1.6,1.6,85,0.00,CLR,,0.02,WeatherDisplay:10.37,2013-04-22 00:00:00,
2013-04-21 17:05:00,50.2,45.8,29.21,WSW,248,1.2,1.2,85,0.00,CLR,,0.02,WeatherDisplay:10.37,2013-04-22 00:05:00,
2013-04-21 17:10:00,50.4,46.3,29.21,WSW,248,0.0,0.0,86,0.00,CLR,,0.02,WeatherDisplay:10.37,2013-04-22 00:10:00,
2013-04-21 17:15:00,50.5,46.5,29.21,NW,315,0.0,0.0,86,0.00,CLR,,0.02,WeatherDisplay:10.37,2013-04-22 00:15:00,
2013-04-21 17:20:00,50.5,46.2,29.21,West,270,1.2,0.0,85,0.00,CLR,,0.02,WeatherDisplay:10.37,2013-04-22 00:20:00,
2013-04-21 17:25:00,50.5,46.2,29.21,West,270,1.2,1.2,85,0.00,CLR,,0.02,WeatherDisplay:10.37,2013-04-22 00:25:00,
2013-04-21 17:30:00,50.7,46.4,29.21,West,270,1.2,0.0,85,0.00,CLR,,0.02,WeatherDisplay:10.37,2013-04-22 00:30:00,
2013-04-21 17:35:00,51.1,46.7,29.21,West,270,1.2,1.2,85,0.00,CLR,,0.02,WeatherDisplay:10.37,2013-04-22 00:35:00,
2013-04-21 17:40:00,51.1,46.7,29.21,WNW,292,1.2,1.2,85,0.00,CLR,,0.02,WeatherDisplay:10.37,2013-04-22 00:40:00,
2013-04-21 17:45:00,50.9,46.2,29.21,West,270,1.2,1.2,84,0.00,CLR,,0.02,WeatherDisplay:10.37,2013-04-22 00:45:00,
2013-04-21 17:50:00,50.9,46.2,29.21,NNW,338,0.5,0.5,84,0.00,CLR,,0.02,WeatherDisplay:10.37,2013-04-22 00:50:00,
2013-04-21 17:55:00,51.3,46.6,29.21,WNW,292,0.9,0.9,84,0.00,CLR,,0.02,WeatherDisplay:10.37,2013-04-22 00:55:00,
2013-04-21 18:00:00,51.6,46.9,29.21,West,270,2.3,2.3,84,0.00,CLR,,0.02,WeatherDisplay:10.37,2013-04-22 01:00:00,
2013-04-21 18:05:00,51.8,46.8,29.21,SW,225,2.3,2.3,83,0.00,CLR,,0.02,WeatherDisplay:10.37,2013-04-22 01:05:00,
2013-04-21 18:10:00,52.0,47.0,29.21,SW,225,1.2,1.2,83,0.00,CLR,,0.02,WeatherDisplay:10.37,2013-04-22 01:10:00,
2013-04-21 18:15:00,52.2,46.8,29.21,South,180,1.2,1.2,82,0.00,CLR,,0.02,WeatherDisplay:10.37,2013-04-22 01:15:00,
2013-04-21 18:20:00,52.2,46.8,29.21,SSW,202,2.3,2.3,82,0.00,CLR,,0.02,WeatherDisplay:10.37,2013-04-22 01:20:00,
2013-04-21 18:25:00,52.0,46.7,29.21,SW,225,4.6,4.6,82,0.00,CLR,,0.02,WeatherDisplay:10.37,2013-04-22 01:25:00,
2013-04-21 18:30:00,52.0,46.0,29.21,WSW,248,3.5,3.5,80,0.00,CLR,,0.02,WeatherDisplay:10.37,2013-04-22 01:30:00,
2013-04-21 18:35:00,51.8,45.8,29.21,West,270,2.3,2.3,80,0.00,CLR,,0.02,WeatherDisplay:10.37,2013-04-22 01:35:00,
2013-04-21 18:40:00,52.2,46.2,29.21,WNW,292,2.3,2.3,80,0.00,CLR,,0.02,WeatherDisplay:10.37,2013-04-22 01:40:00,
2013-04-21 18:45:00,53.1,47.4,29.21,SSW,202,2.3,2.3,81,0.00,CLR,,0.02,WeatherDisplay:10.37,2013-04-22 01:45:00,
2013-04-21 18:50:00,55.8,48.0,29.21,North,0,3.5,3.5,75,0.00,CLR,,0.02,WeatherDisplay:10.37,2013-04-22 01:50:00,
2013-04-21 18:55:00,56.7,47.4,29.21,NNW,338,1.2,1.2,71,0.00,CLR,,0.02,WeatherDisplay:10.37,2013-04-22 01:55:00,
2013-04-21 19:00:00,56.8,45.2,29.21,SW,225,2.3,2.3,65,0.00,CLR,,0.02,WeatherDisplay:10.37,2013-04-22 02:00:00,
2013-04-21 19:05:00,55.8,45.7,29.21,SW,225,2.0,2.0,69,0.00,CLR,,0.02,WeatherDisplay:10.37,2013-04-22 02:05:00,
2013-04-21 19:10:00,56.1,45.3,29.21,NNW,338,2.6,2.6,67,0.00,CLR,,0.02,WeatherDisplay:10.37,2013-04-22 02:10:00,
2013-04-21 19:15:00,56.5,46.0,29.21,WSW,248,2.3,2.3,68,0.00,CLR,,0.02,WeatherDisplay:10.37,2013-04-22 02:15:00,
2013-04-21 19:21:00,56.7,45.0,29.21,SW,225,2.3,2.3,65,0.00,CLR,,0.02,WeatherDisplay:10.37,2013-04-22 02:21:00,
2013-04-21 19:26:00,56.5,46.0,29.22,WSW,248,0.0,0.0,68,0.00,CLR,,0.02,WeatherDisplay:10.37,2013-04-22 02:26:00,
2013-04-21 19:31:00,55.0,44.3,29.22,WSW,248,1.2,1.2,67,0.00,CLR,,0.02,WeatherDisplay:10.37,2013-04-22 02:31:00,
2013-04-21 19:36:00,53.1,42.8,29.22,NNW,338,1.2,1.2,68,0.00,CLR,,0.02,WeatherDisplay:10.37,2013-04-22 02:36:00,
2013-04-21 19:41:00,51.4,41.6,29.22,SSE,158,1.2,1.2,69,0.00,CLR,,0.02,WeatherDisplay:10.37,2013-04-22 02:41:00,
2013-04-21 19:46:00,50.5,41.5,29.22,SW,225,0.0,0.0,71,0.00,CLR,,0.02,WeatherDisplay:10.37,2013-04-22 02:46:00,
2013-04-21 19:51:00,50.4,41.7,29.22,NNW,338,1.2,1.2,72,0.00,CLR,,0.02,WeatherDisplay:10.37,2013-04-22 02:51:00,
2013-04-21 19:56:00,49.3,41.0,29.22,North,0,2.3,2.3,73,0.00,CLR,,0.02,WeatherDisplay:10.37,2013-04-22 02:56:00,
2013-04-21 20:01:00,48.6,40.6,29.22,SSE,158,0.0,0.0,74,0.00,CLR,,0.02,WeatherDisplay:10.37,2013-04-22 03:01:00,
2013-04-21 20:06:00,47.8,40.3,29.22,NE,45,1.2,1.2,75,0.00,CLR,,0.02,WeatherDisplay:10.37,2013-04-22 03:06:00,
2013-04-21 20:11:00,47.3,39.8,29.22,SSW,202,1.2,1.2,75,0.00,CLR,,0.02,WeatherDisplay:10.37,2013-04-22 03:11:00,
2013-04-21 20:16:00,46.6,39.4,29.22,WSW,248,1.2,1.2,76,0.00,CLR,,0.02,WeatherDisplay:10.37,2013-04-22 03:16:00,
2013-04-21 20:21:00,46.2,39.4,29.23,ESE,112,0.0,0.0,77,0.00,CLR,,0.02,WeatherDisplay:10.37,2013-04-22 03:21:00,
2013-04-21 20:26:00,45.7,39.2,29.23,SSW,202,1.2,1.2,78,0.00,CLR,,0.02,WeatherDisplay:10.37,2013-04-22 03:26:00,
2013-04-21 20:31:00,45.3,38.5,29.23,SSE,158,0.5,0.5,77,0.00,CLR,,0.02,WeatherDisplay:10.37,2013-04-22 03:31:00,
2013-04-21 20:36:00,45.0,38.5,29.23,SE,135,0.5,0.5,78,0.00,CLR,,0.02,WeatherDisplay:10.37,2013-04-22 03:36:00,
2013-04-21 20:41:00,44.6,38.2,29.23,SE,135,0.0,0.0,78,0.00,CLR,,0.02,WeatherDisplay:10.37,2013-04-22 03:41:00,
2013-04-21 20:46:00,44.2,38.1,29.23,NW,315,0.0,0.0,79,0.00,CLR,,0.02,WeatherDisplay:10.37,2013-04-22 03:46:00,
2013-04-21 20:51:00,44.1,38.3,29.23,North,0,0.0,0.0,80,0.00,CLR,,0.02,WeatherDisplay:10.37,2013-04-22 03:51:00,
2013-04-21 20:56:00,43.9,38.1,29.23,West,270,1.2,0.0,80,0.00,CLR,,0.02,WeatherDisplay:10.37,2013-04-22 03:56:00,
2013-04-21 21:01:00,43.7,37.9,29.23,South,180,0.5,0.5,80,0.00,CLR,,0.02,WeatherDisplay:10.37,2013-04-22 04:01:00,
2013-04-21 21:06:00,43.5,38.1,29.24,SSE,158,1.2,1.2,81,0.00,CLR,,0.02,WeatherDisplay:10.37,2013-04-22 04:06:00,
2013-04-21 21:11:00,43.2,37.7,29.24,North,0,1.2,1.2,81,0.00,CLR,,0.02,WeatherDisplay:10.37,2013-04-22 04:11:00,
2013-04-21 21:16:00,42.8,37.4,29.24,SE,135,1.2,1.2,81,0.00,CLR,,0.02,WeatherDisplay:10.37,2013-04-22 04:16:00,
2013-04-21 21:21:00,42.8,37.4,29.24,SSE,158,0.2,0.2,81,0.00,CLR,,0.02,WeatherDisplay:10.37,2013-04-22 04:21:00,
2013-04-21 21:26:00,42.6,37.5,29.25,ESE,112,0.5,0.5,82,0.00,CLR,,0.02,WeatherDisplay:10.37,2013-04-22 04:26:00,
2013-04-21 21:31:00,42.4,37.3,29.25,East,90,0.5,0.5,82,0.00,CLR,,0.02,WeatherDisplay:10.37,2013-04-22 04:31:00,
2013-04-21 21:36:00,42.3,37.2,29.25,South,180,0.9,0.9,82,0.00,CLR,,0.02,WeatherDisplay:10.37,2013-04-22 04:36:00,
2013-04-21 21:41:00,42.1,37.3,29.25,South,180,0.0,0.0,83,0.00,CLR,,0.02,WeatherDisplay:10.37,2013-04-22 04:41:00,
2013-04-21 21:46:00,42.1,37.3,29.26,SSE,158,0.5,0.5,83,0.00,CLR,,0.02,WeatherDisplay:10.37,2013-04-22 04:46:00,
2013-04-21 21:51:00,42.1,37.3,29.25,SE,135,1.2,0.0,83,0.00,CLR,,0.02,WeatherDisplay:10.37,2013-04-22 04:51:00,
2013-04-21 21:56:00,42.1,37.6,29.26,South,180,0.0,0.0,84,0.00,CLR,,0.02,WeatherDisplay:10.37,2013-04-22 04:56:00,
2013-04-21 22:01:00,42.3,38.1,29.25,WSW,248,1.4,1.4,85,0.00,CLR,,0.02,WeatherDisplay:10.37,2013-04-22 05:01:00,
2013-04-21 22:06:00,42.4,38.2,29.26,SW,225,2.3,2.3,85,0.00,CLR,,0.02,WeatherDisplay:10.37,2013-04-22 05:06:00,
2013-04-21 22:11:00,42.6,38.4,29.26,WSW,248,1.2,0.0,85,0.00,CLR,,0.02,WeatherDisplay:10.37,2013-04-22 05:11:00,
2013-04-21 22:16:00,42.6,38.4,29.26,North,0,0.0,0.0,85,0.00,CLR,,0.02,WeatherDisplay:10.37,2013-04-22 05:16:00,
2013-04-21 22:21:00,42.4,37.9,29.26,SSW,202,0.0,0.0,84,0.00,CLR,,0.02,WeatherDisplay:10.37,2013-04-22 05:21:00,
2013-04-21 22:26:00,42.1,37.6,29.26,SSW,202,0.0,0.0,84,0.00,CLR,,0.02,WeatherDisplay:10.37,2013-04-22 05:26:00,
2013-04-21 22:31:00,41.7,37.5,29.26,SSW,202,0.0,0.0,85,0.00,CLR,,0.02,WeatherDisplay:10.37,2013-04-22 05:31:00,
2013-04-21 22:36:00,41.4,36.9,29.26,SSW,202,0.0,0.0,84,0.00,CLR,,0.02,WeatherDisplay:10.37,2013-04-22 05:36:00,
2013-04-21 22:41:00,41.4,36.9,29.26,SE,135,0.0,0.7,84,0.00,CLR,,0.02,WeatherDisplay:10.37,2013-04-22 05:41:00,
2013-04-21 22:46:00,41.0,36.8,29.26,SSE,158,0.0,0.0,85,0.00,CLR,,0.02,WeatherDisplay:10.37,2013-04-22 05:46:00,
2013-04-21 22:51:00,41.0,36.8,29.26,SW,225,0.0,0.0,85,0.00,CLR,,0.02,WeatherDisplay:10.37,2013-04-22 05:51:00,
2013-04-21 22:56:00,40.8,36.7,29.26,SSE,158,0.5,0.5,85,0.00,CLR,,0.02,WeatherDisplay:10.37,2013-04-22 05:56:00,
2013-04-21 23:01:00,40.6,36.8,29.26,SSE,158,1.2,1.2,86,0.00,CLR,,0.02,WeatherDisplay:10.37,2013-04-22 06:01:00,
2013-04-21 23:07:00,40.6,36.8,29.26,ESE,112,1.2,1.2,86,0.00,CLR,,0.02,WeatherDisplay:10.37,2013-04-22 06:07:00,
2013-04-21 23:12:00,40.6,36.8,29.26,SE,135,0.0,0.0,86,0.00,CLR,,0.02,WeatherDisplay:10.37,2013-04-22 06:12:00,
2013-04-21 23:17:00,40.5,36.9,29.26,SE,135,0.0,0.2,87,0.00,CLR,,0.02,WeatherDisplay:10.37,2013-04-22 06:17:00,
2013-04-21 23:22:00,40.5,36.9,29.26,SSE,158,1.2,1.2,87,0.00,CLR,,0.02,WeatherDisplay:10.37,2013-04-22 06:22:00,
2013-04-21 23:27:00,40.3,36.7,29.26,SSW,202,1.2,1.2,87,0.00,CLR,,0.02,WeatherDisplay:10.37,2013-04-22 06:27:00,
2013-04-21 23:32:00,40.5,36.9,29.26,WNW,292,1.4,1.4,87,0.00,CLR,,0.02,WeatherDisplay:10.37,2013-04-22 06:32:00,
2013-04-21 23:37:00,40.5,36.9,29.26,SSW,202,1.2,1.2,87,0.00,CLR,,0.02,WeatherDisplay:10.37,2013-04-22 06:37:00,
2013-04-21 23:42:00,40.3,37.0,29.26,NNE,22,1.2,1.2,88,0.00,CLR,,0.02,WeatherDisplay:10.37,2013-04-22 06:42:00,
2013-04-21 23:47:00,40.5,37.2,29.26,East,90,2.3,2.3,88,0.00,CLR,,0.02,WeatherDisplay:10.37,2013-04-22 06:47:00,
2013-04-21 23:52:00,40.5,37.2,29.26,East,90,0.0,0.0,88,0.00,CLR,,0.02,WeatherDisplay:10.37,2013-04-22 06:52:00,
2013-04-21 23:57:00,40.5,37.2,29.26,ENE,68,2.3,2.3,88,0.00,CLR,,0.02,WeatherDisplay:10.37,2013-04-22 06:57:00,